createdAt,value
2019-02-23T00:00:47.975Z,4.90
2019-02-23T00:03:19.009Z,4.80
2019-02-23T00:05:48.523Z,4.70
2019-02-23T00:08:17.948Z,4.70
2019-02-23T00:10:47.340Z,4.60
2019-02-23T00:13:16.867Z,4.50
2019-02-23T00:15:46.292Z,4.50
2019-02-23T00:18:15.678Z,4.40
2019-02-23T00:20:45.094Z,4.30
2019-02-23T00:23:14.499Z,4.30
2019-02-23T00:25:43.852Z,4.30
2019-02-23T00:28:13.247Z,4.30
2019-02-23T00:30:42.602Z,4.20
2019-02-23T00:33:11.994Z,4.10
2019-02-23T00:35:41.351Z,4.10
2019-02-23T00:38:10.749Z,4.00
2019-02-23T00:40:40.247Z,3.90
2019-02-23T00:43:09.627Z,3.80
2019-02-23T00:45:39.130Z,3.80
2019-02-23T00:48:08.648Z,3.80
2019-02-23T00:50:38.075Z,3.70
2019-02-23T00:53:07.683Z,3.60
2019-02-23T00:55:37.142Z,3.60
2019-02-23T00:58:06.843Z,3.50
2019-02-23T01:00:36.266Z,3.50
2019-02-23T01:03:05.660Z,3.40
2019-02-23T01:05:35.043Z,3.40
2019-02-23T01:08:04.631Z,3.40
2019-02-23T01:10:34.171Z,3.30
2019-02-23T01:13:03.557Z,3.30
2019-02-23T01:15:33.653Z,3.20
2019-02-23T01:18:03.599Z,3.20
2019-02-23T01:20:33.055Z,3.10
2019-02-23T01:23:02.650Z,3.10
2019-02-23T01:25:32.182Z,3.10
2019-02-23T01:28:01.576Z,3.00
2019-02-23T01:30:31.237Z,3.10
2019-02-23T01:33:00.631Z,3.00
2019-02-23T01:35:30.027Z,3.00
2019-02-23T01:37:59.500Z,2.90
2019-02-23T01:40:28.925Z,2.90
2019-02-23T01:42:58.411Z,2.90
2019-02-23T01:45:27.935Z,2.90
2019-02-23T01:47:57.435Z,2.90
2019-02-23T01:50:26.793Z,2.80
2019-02-23T01:52:56.189Z,2.80
2019-02-23T01:55:25.870Z,2.80
2019-02-23T01:57:55.317Z,2.70
2019-02-23T02:00:25.617Z,2.70
2019-02-23T02:02:55.258Z,2.60
2019-02-23T02:05:25.280Z,2.60
2019-02-23T02:07:55.238Z,2.50
2019-02-23T02:10:24.886Z,2.50
2019-02-23T02:13:13.811Z,2.50
2019-02-23T02:15:43.322Z,2.40
2019-02-23T02:18:12.709Z,2.40
2019-02-23T02:20:42.328Z,2.40
2019-02-23T02:23:11.762Z,2.40
2019-02-23T02:25:41.117Z,2.30
2019-02-23T02:28:10.593Z,2.20
2019-02-23T02:30:40.189Z,2.20
2019-02-23T02:33:09.617Z,2.20
2019-02-23T02:35:39.082Z,2.20
2019-02-23T02:38:08.545Z,2.10
2019-02-23T02:40:38.097Z,2.10
2019-02-23T02:43:07.500Z,2.00
2019-02-23T02:45:36.970Z,1.90
2019-02-23T02:48:06.716Z,1.90
2019-02-23T02:50:36.115Z,1.80
2019-02-23T02:53:24.960Z,1.80
2019-02-23T02:55:54.362Z,1.90
2019-02-23T02:58:43.146Z,1.80
2019-02-23T03:01:12.628Z,1.80
2019-02-23T03:03:42.058Z,1.90
2019-02-23T03:06:11.588Z,1.90
2019-02-23T03:08:40.943Z,1.90
2019-02-23T03:11:10.741Z,1.80
2019-02-23T03:13:40.241Z,1.80
2019-02-23T03:16:10.466Z,1.90
2019-02-23T03:18:39.820Z,1.90
2019-02-23T03:21:09.813Z,1.90
2019-02-23T03:23:39.342Z,1.90
2019-02-23T03:26:08.954Z,1.90
2019-02-23T03:28:38.347Z,1.90
2019-02-23T03:31:07.780Z,1.90
2019-02-23T03:33:37.168Z,1.80
2019-02-23T03:36:06.976Z,1.90
2019-02-23T03:38:36.372Z,1.80
2019-02-23T03:41:05.823Z,1.70
2019-02-23T03:43:35.314Z,1.70
2019-02-23T03:46:04.861Z,1.70
2019-02-23T03:48:34.476Z,1.70
2019-02-23T03:51:03.878Z,1.70
2019-02-23T03:53:33.514Z,1.70
2019-02-23T03:56:03.069Z,1.70
2019-02-23T03:58:32.515Z,1.60
2019-02-23T04:01:01.994Z,1.70
2019-02-23T04:03:31.421Z,1.70
2019-02-23T04:06:02.161Z,1.70
2019-02-23T04:08:31.636Z,1.60
2019-02-23T04:11:01.021Z,1.60
2019-02-23T04:13:30.503Z,1.60
2019-02-23T04:16:00.097Z,1.60
2019-02-23T04:18:29.587Z,1.60
2019-02-23T04:21:02.095Z,1.70
2019-02-23T04:23:31.704Z,1.70
2019-02-23T04:26:01.175Z,1.70
2019-02-23T04:28:30.571Z,1.70
2019-02-23T04:30:59.967Z,1.70
2019-02-23T04:33:29.807Z,1.60
2019-02-23T04:35:59.436Z,1.70
2019-02-23T04:38:29.077Z,1.70
2019-02-23T04:40:58.984Z,1.70
2019-02-23T04:43:28.515Z,1.70
2019-02-23T04:45:57.913Z,1.70
2019-02-23T04:48:28.952Z,1.60
2019-02-23T04:50:58.413Z,1.60
2019-02-23T04:53:27.807Z,1.60
2019-02-23T04:55:57.266Z,1.60
2019-02-23T04:58:26.727Z,1.60
2019-02-23T05:00:56.356Z,1.60
2019-02-23T05:03:38.859Z,1.60
2019-02-23T05:06:08.308Z,1.60
2019-02-23T05:08:38.458Z,1.60
2019-02-23T05:11:07.888Z,1.60
2019-02-23T05:13:37.286Z,1.60
2019-02-23T05:16:06.791Z,1.60
2019-02-23T05:18:36.275Z,1.70
2019-02-23T05:21:05.842Z,1.70
2019-02-23T05:23:35.309Z,1.70
2019-02-23T05:26:04.810Z,1.60
2019-02-23T05:28:34.429Z,1.60
2019-02-23T05:31:03.785Z,1.60
2019-02-23T05:33:33.189Z,1.60
2019-02-23T05:36:02.544Z,1.60
2019-02-23T05:38:31.930Z,1.60
2019-02-23T05:41:01.302Z,1.60
2019-02-23T05:43:30.762Z,1.60
2019-02-23T05:46:00.129Z,1.60
2019-02-23T05:48:29.551Z,1.60
2019-02-23T05:50:58.919Z,1.60
2019-02-23T05:53:28.388Z,1.70
2019-02-23T05:55:57.750Z,1.70
2019-02-23T05:58:46.870Z,1.70
2019-02-23T06:01:16.363Z,1.70
2019-02-23T06:03:45.959Z,1.80
2019-02-23T06:06:16.019Z,1.80
2019-02-23T06:08:46.973Z,1.80
2019-02-23T06:11:16.496Z,1.80
2019-02-23T06:13:46.956Z,1.90
2019-02-23T06:16:16.376Z,1.90
2019-02-23T06:18:45.840Z,1.90
2019-02-23T06:21:15.316Z,1.90
2019-02-23T06:23:44.775Z,2.00
2019-02-23T06:26:14.336Z,2.00
2019-02-23T06:28:43.775Z,2.00
2019-02-23T06:31:13.240Z,2.10
2019-02-23T06:33:42.707Z,2.10
2019-02-23T06:36:12.166Z,2.10
2019-02-23T06:38:41.540Z,2.20
2019-02-23T06:41:11.025Z,2.10
2019-02-23T06:43:40.385Z,2.10
2019-02-23T06:46:09.779Z,2.20
2019-02-23T06:48:39.193Z,2.20
2019-02-23T06:51:08.718Z,2.30
2019-02-23T06:53:38.157Z,2.30
2019-02-23T06:56:07.614Z,2.30
2019-02-23T06:58:37.026Z,2.30
2019-02-23T07:01:07.812Z,2.30
2019-02-23T07:03:37.277Z,2.30
2019-02-23T07:06:06.960Z,2.30
2019-02-23T07:08:55.730Z,2.40
2019-02-23T07:11:25.688Z,2.40
2019-02-23T07:13:55.812Z,2.50
2019-02-23T07:16:25.411Z,2.50
2019-02-23T07:18:54.831Z,2.50
2019-02-23T07:21:24.290Z,2.50
2019-02-23T07:23:53.663Z,2.50
2019-02-23T07:26:24.563Z,2.60
2019-02-23T07:28:54.045Z,2.60
2019-02-23T07:31:23.471Z,2.60
2019-02-23T07:33:57.558Z,2.70
2019-02-23T07:36:26.976Z,2.70
2019-02-23T07:38:56.395Z,2.70
2019-02-23T07:41:25.755Z,2.60
2019-02-23T07:43:55.163Z,2.70
2019-02-23T07:46:26.071Z,2.70
2019-02-23T07:48:55.434Z,2.90
2019-02-23T07:51:24.895Z,2.80
2019-02-23T07:53:54.258Z,2.80
2019-02-23T07:56:23.772Z,2.80
2019-02-23T07:58:58.377Z,2.70
2019-02-23T08:01:27.776Z,2.70
2019-02-23T08:03:57.222Z,2.80
2019-02-23T08:06:45.949Z,2.80
2019-02-23T08:09:15.423Z,2.80
2019-02-23T08:11:44.963Z,2.80
2019-02-23T08:14:14.428Z,2.80
2019-02-23T08:16:43.903Z,2.70
2019-02-23T08:19:13.303Z,2.70
2019-02-23T08:21:42.780Z,2.80
2019-02-23T08:24:12.243Z,2.80
2019-02-23T08:26:41.650Z,2.80
2019-02-23T08:29:11.142Z,2.80
2019-02-23T08:31:40.546Z,2.80
2019-02-23T08:34:10.118Z,2.90
2019-02-23T08:36:39.548Z,2.90
2019-02-23T08:39:08.958Z,3.00
2019-02-23T08:41:38.434Z,3.10
2019-02-23T08:44:07.881Z,3.00
2019-02-23T08:46:37.343Z,3.00
2019-02-23T08:49:06.736Z,3.00
2019-02-23T08:51:36.143Z,3.10
2019-02-23T08:54:05.580Z,3.10
2019-02-23T08:56:34.988Z,3.20
2019-02-23T08:59:04.516Z,3.30
2019-02-23T09:01:33.996Z,3.20
2019-02-23T09:04:03.476Z,3.20
2019-02-23T09:06:32.948Z,3.20
2019-02-23T09:09:02.485Z,3.20
2019-02-23T09:11:32.008Z,3.50
2019-02-23T09:14:01.411Z,3.50
2019-02-23T09:16:30.921Z,3.60
2019-02-23T09:19:00.298Z,3.90
2019-02-23T09:21:29.724Z,4.10
2019-02-23T09:23:59.239Z,4.60
2019-02-23T09:26:28.780Z,5.40
2019-02-23T09:28:58.209Z,5.40
2019-02-23T09:31:27.600Z,5.90
2019-02-23T09:33:57.043Z,6.10
2019-02-23T09:36:26.778Z,6.50
2019-02-23T09:38:56.282Z,6.50
2019-02-23T09:41:25.796Z,6.50
2019-02-23T09:43:55.307Z,6.40
2019-02-23T09:46:24.766Z,6.40
2019-02-23T09:48:56.327Z,6.70
2019-02-23T09:51:25.671Z,6.80
2019-02-23T09:53:55.035Z,6.60
2019-02-23T09:56:24.503Z,7.20
2019-02-23T09:58:53.859Z,7.90
2019-02-23T10:01:24.139Z,8.10
2019-02-23T10:03:53.503Z,8.50
2019-02-23T10:06:22.982Z,8.80
2019-02-23T10:08:52.342Z,7.60
2019-02-23T10:11:21.906Z,7.60
2019-02-23T10:13:51.330Z,7.80
2019-02-23T10:16:20.885Z,8.50
2019-02-23T10:18:50.374Z,8.50
2019-02-23T10:21:19.767Z,9.20
2019-02-23T10:23:49.200Z,9.60
2019-02-23T10:26:18.622Z,8.80
2019-02-23T10:28:47.990Z,9.30
2019-02-23T10:31:17.633Z,8.90
2019-02-23T10:33:47.913Z,8.80
2019-02-23T10:36:17.536Z,9.10
2019-02-23T10:38:46.960Z,9.30
2019-02-23T10:41:30.311Z,9.20
2019-02-23T10:44:12.628Z,9.30
2019-02-23T10:46:42.169Z,10.10
2019-02-23T10:49:11.580Z,10.70
2019-02-23T10:51:41.215Z,9.90
2019-02-23T10:54:10.736Z,10.60
2019-02-23T10:56:40.326Z,10.20
2019-02-23T10:59:09.903Z,11.30
2019-02-23T11:01:39.432Z,11.00
2019-02-23T11:04:08.993Z,11.00
2019-02-23T11:06:38.630Z,11.00
2019-02-23T11:09:10.124Z,10.70
2019-02-23T11:11:39.737Z,10.50
2019-02-23T11:14:09.242Z,10.20
2019-02-23T11:16:38.957Z,9.90
2019-02-23T11:19:08.467Z,10.50
2019-02-23T11:21:37.991Z,10.50
2019-02-23T11:24:07.543Z,10.80
2019-02-23T11:26:37.078Z,11.00
2019-02-23T11:29:06.690Z,11.70
2019-02-23T11:31:36.166Z,11.40
2019-02-23T11:34:05.910Z,11.50
2019-02-23T11:36:35.407Z,11.90
2019-02-23T11:39:05.626Z,11.30
2019-02-23T11:41:35.012Z,11.20
2019-02-23T11:44:04.524Z,11.80
2019-02-23T11:46:34.049Z,12.50
2019-02-23T11:49:03.434Z,12.10
2019-02-23T11:51:32.844Z,11.40
2019-02-23T11:54:02.363Z,10.70
2019-02-23T11:56:31.905Z,11.70
2019-02-23T11:59:01.678Z,11.80
2019-02-23T12:01:31.770Z,11.70
2019-02-23T12:04:01.301Z,11.90
2019-02-23T12:06:30.780Z,11.70
2019-02-23T12:09:01.061Z,11.10
2019-02-23T12:11:30.483Z,11.50
2019-02-23T12:13:59.887Z,11.60
2019-02-23T12:16:29.255Z,11.70
2019-02-23T12:18:58.723Z,11.70
2019-02-23T12:21:28.147Z,12.20
2019-02-23T12:24:05.754Z,11.60
2019-02-23T12:26:28.743Z,11.60
2019-02-23T12:28:58.152Z,12.10
2019-02-23T12:31:27.515Z,12.20
2019-02-23T12:33:58.068Z,12.90
2019-02-23T12:36:27.434Z,12.20
2019-02-23T12:38:56.839Z,12.10
2019-02-23T12:41:26.280Z,12.40
2019-02-23T12:43:55.672Z,12.50
2019-02-23T12:46:25.036Z,12.30
2019-02-23T12:48:54.551Z,12.20
2019-02-23T12:51:23.942Z,12.00
2019-02-23T12:53:54.911Z,11.80
2019-02-23T12:56:26.097Z,11.80
2019-02-23T12:58:55.681Z,12.50
2019-02-23T13:01:25.250Z,12.90
2019-02-23T13:03:54.784Z,13.00
2019-02-23T13:06:24.176Z,13.00
2019-02-23T13:09:19.307Z,12.80
2019-02-23T13:11:51.865Z,12.70
2019-02-23T13:14:42.156Z,12.90
2019-02-23T13:17:45.356Z,12.50
2019-02-23T13:20:44.780Z,12.90
2019-02-23T13:23:20.112Z,12.40
2019-02-23T13:25:55.116Z,12.70
2019-02-23T13:28:42.782Z,12.40
2019-02-23T13:31:18.005Z,12.50
2019-02-23T13:34:00.192Z,12.40
2019-02-23T13:36:41.656Z,12.20
2019-02-23T13:39:23.149Z,12.30
2019-02-23T13:42:24.331Z,12.70
2019-02-23T13:45:05.542Z,13.10
2019-02-23T13:47:41.031Z,13.30
2019-02-23T13:50:18.890Z,12.60
2019-02-23T13:53:08.392Z,12.40
2019-02-23T13:55:59.219Z,12.40
2019-02-23T13:58:37.497Z,12.50
2019-02-23T14:01:28.365Z,13.00
2019-02-23T14:04:31.360Z,13.20
2019-02-23T14:07:06.499Z,12.70
2019-02-23T14:09:55.786Z,12.70
2019-02-23T14:12:37.137Z,12.60
2019-02-23T14:15:21.592Z,12.90
2019-02-23T14:17:59.846Z,13.10
2019-02-23T14:20:44.211Z,12.90
2019-02-23T14:23:33.121Z,13.30
2019-02-23T14:26:40.500Z,13.10
2019-02-23T14:29:15.872Z,13.40
2019-02-23T14:32:03.647Z,13.10
2019-02-23T14:34:51.259Z,13.90
2019-02-23T14:37:35.943Z,13.60
2019-02-23T14:40:17.539Z,13.30
2019-02-23T14:43:06.829Z,12.70
2019-02-23T14:45:58.783Z,12.60
2019-02-23T14:48:46.408Z,12.40
2019-02-23T14:51:52.197Z,11.50
2019-02-23T14:54:30.322Z,11.00
2019-02-23T14:57:15.082Z,10.80
2019-02-23T15:00:04.123Z,10.60
2019-02-23T15:02:54.518Z,10.50
2019-02-23T15:05:29.585Z,10.50
2019-02-23T15:08:21.168Z,10.50
2019-02-23T15:10:59.277Z,10.50
2019-02-23T15:13:37.712Z,10.50
2019-02-23T15:16:17.072Z,10.40
2019-02-23T15:19:03.807Z,10.40
2019-02-23T15:21:39.247Z,10.40
2019-02-23T15:24:17.751Z,10.40
2019-02-23T15:26:50.329Z,10.40
2019-02-23T15:29:46.503Z,10.40
2019-02-23T15:32:24.716Z,10.40
2019-02-23T15:35:10.252Z,10.40
2019-02-23T15:37:51.902Z,10.60
2019-02-23T15:40:33.439Z,10.40
2019-02-23T15:43:37.791Z,10.30
2019-02-23T15:46:29.932Z,10.80
2019-02-23T15:49:30.367Z,11.60
2019-02-23T15:52:00.985Z,12.10
2019-02-23T15:54:30.642Z,12.90
2019-02-23T15:57:00.184Z,13.00
2019-02-23T15:59:29.731Z,12.40
2019-02-23T16:01:59.196Z,11.70
2019-02-23T16:04:28.752Z,11.30
2019-02-23T16:07:01.264Z,10.50
2019-02-23T16:09:30.706Z,9.90
2019-02-23T16:12:00.135Z,9.50
2019-02-23T16:14:29.655Z,9.20
2019-02-23T16:16:59.103Z,8.90
2019-02-23T16:19:28.499Z,8.70
2019-02-23T16:21:59.572Z,8.60
2019-02-23T16:24:28.964Z,8.50
2019-02-23T16:26:58.640Z,8.40
2019-02-23T16:29:28.080Z,8.20
2019-02-23T16:31:57.427Z,8.00
2019-02-23T16:34:26.816Z,7.90
2019-02-23T16:36:56.267Z,7.90
2019-02-23T16:39:25.640Z,7.80
2019-02-23T16:41:54.990Z,7.70
2019-02-23T16:44:24.394Z,7.60
2019-02-23T16:46:53.781Z,7.50
2019-02-23T16:49:23.227Z,7.50
2019-02-23T16:51:52.809Z,7.40
2019-02-23T16:54:22.293Z,7.30
2019-02-23T16:56:51.716Z,7.20
2019-02-23T16:59:21.199Z,7.10
2019-02-23T17:01:52.117Z,7.00
2019-02-23T17:04:21.545Z,6.90
2019-02-23T17:06:50.983Z,6.90
2019-02-23T17:09:20.521Z,6.90
2019-02-23T17:11:49.953Z,6.80
2019-02-23T17:14:20.886Z,6.70
2019-02-23T17:16:50.252Z,6.70
2019-02-23T17:19:19.751Z,6.60
2019-02-23T17:21:49.145Z,6.50
2019-02-23T17:24:18.536Z,6.50
2019-02-23T17:26:47.979Z,6.30
2019-02-23T17:29:17.416Z,6.20
2019-02-23T17:31:48.361Z,6.10
2019-02-23T17:34:17.888Z,6.00
2019-02-23T17:36:47.307Z,6.00
2019-02-23T17:39:16.704Z,6.00
2019-02-23T17:41:46.145Z,6.00
2019-02-23T17:44:15.659Z,6.10
2019-02-23T17:46:48.392Z,6.20
2019-02-23T17:49:16.389Z,6.20
2019-02-23T17:51:45.853Z,6.20
2019-02-23T17:54:15.401Z,6.30
2019-02-23T17:56:44.802Z,6.30
2019-02-23T17:59:14.271Z,6.30
2019-02-23T18:01:43.675Z,6.30
2019-02-23T18:04:13.104Z,6.40
2019-02-23T18:06:42.574Z,6.40
2019-02-23T18:09:11.959Z,6.40
2019-02-23T18:11:41.359Z,6.50
2019-02-23T18:14:10.774Z,6.60
2019-02-23T18:16:40.404Z,6.60
2019-02-23T18:19:09.903Z,6.60
2019-02-23T18:21:39.304Z,6.50
2019-02-23T18:24:08.825Z,6.60
2019-02-23T18:26:39.858Z,6.50
2019-02-23T18:29:09.231Z,6.70
2019-02-23T18:31:38.789Z,6.60
2019-02-23T18:34:08.418Z,6.60
2019-02-23T18:36:38.112Z,6.50
2019-02-23T18:39:09.104Z,6.40
2019-02-23T18:41:38.588Z,6.40
2019-02-23T18:44:07.957Z,6.40
2019-02-23T18:46:37.503Z,6.40
2019-02-23T18:49:06.979Z,6.30
2019-02-23T18:51:36.448Z,6.30
2019-02-23T18:54:07.380Z,6.30
2019-02-23T18:56:36.788Z,6.30
2019-02-23T18:59:06.239Z,6.30
2019-02-23T19:01:35.898Z,6.20
2019-02-23T19:04:05.324Z,6.20
2019-02-23T19:06:34.717Z,6.10
2019-02-23T19:09:05.274Z,6.10
2019-02-23T19:11:34.671Z,6.00
2019-02-23T19:14:04.167Z,6.00
2019-02-23T19:16:33.701Z,5.90
2019-02-23T19:19:03.120Z,5.80
2019-02-23T19:21:34.208Z,5.80
2019-02-23T19:24:03.643Z,5.70
2019-02-23T19:26:38.301Z,5.70
2019-02-23T19:29:04.384Z,5.70
2019-02-23T19:31:33.782Z,5.60
2019-02-23T19:34:03.223Z,5.60
2019-02-23T19:36:32.611Z,5.60
2019-02-23T19:39:02.041Z,5.70
2019-02-23T19:41:31.614Z,5.60
2019-02-23T19:44:01.039Z,5.60
2019-02-23T19:46:32.031Z,5.50
2019-02-23T19:49:01.953Z,5.40
2019-02-23T19:51:31.530Z,5.30
2019-02-23T19:54:00.956Z,5.40
2019-02-23T19:56:30.558Z,5.40
2019-02-23T19:58:59.932Z,5.40
2019-02-23T20:01:29.384Z,5.40
2019-02-23T20:04:00.470Z,5.30
2019-02-23T20:06:29.999Z,5.30
2019-02-23T20:08:59.431Z,5.30
2019-02-23T20:11:28.867Z,5.40
2019-02-23T20:13:58.232Z,5.50
2019-02-23T20:16:27.834Z,5.30
2019-02-23T20:18:57.201Z,5.20
2019-02-23T20:21:26.684Z,5.10
2019-02-23T20:23:56.168Z,5.20
2019-02-23T20:26:25.925Z,5.20
2019-02-23T20:28:55.275Z,5.10
2019-02-23T20:31:24.662Z,5.20
2019-02-23T20:33:54.135Z,5.20
2019-02-23T20:36:23.587Z,5.20
2019-02-23T20:38:53.011Z,5.10
2019-02-23T20:41:22.412Z,5.20
2019-02-23T20:43:51.967Z,5.10
2019-02-23T20:46:21.488Z,5.00
2019-02-23T20:48:50.910Z,5.10
2019-02-23T20:51:20.321Z,5.20
2019-02-23T20:53:49.833Z,5.20
2019-02-23T20:56:19.415Z,5.10
2019-02-23T20:58:48.765Z,5.10
2019-02-23T21:01:18.498Z,5.00
2019-02-23T21:03:48.075Z,4.90
2019-02-23T21:06:17.579Z,4.80
2019-02-23T21:08:47.017Z,4.70
2019-02-23T21:11:16.491Z,4.60
2019-02-23T21:13:45.876Z,4.50
2019-02-23T21:16:15.363Z,4.50
2019-02-23T21:18:44.826Z,4.40
2019-02-23T21:21:14.233Z,4.30
2019-02-23T21:23:45.386Z,4.20
2019-02-23T21:26:15.044Z,4.20
2019-02-23T21:28:44.600Z,4.20
2019-02-23T21:31:13.994Z,4.20
2019-02-23T21:33:43.574Z,4.20
2019-02-23T21:36:12.938Z,4.20
2019-02-23T21:38:42.561Z,4.10
2019-02-23T21:41:12.092Z,3.90
2019-02-23T21:43:43.071Z,3.80
2019-02-23T21:46:14.068Z,3.70
2019-02-23T21:48:43.463Z,3.60
2019-02-23T21:51:12.896Z,3.60
2019-02-23T21:53:42.347Z,3.60
2019-02-23T21:56:11.756Z,3.60
2019-02-23T21:58:41.240Z,3.60
2019-02-23T22:01:12.344Z,3.60
2019-02-23T22:03:41.868Z,3.50
2019-02-23T22:06:11.404Z,3.50
2019-02-23T22:08:41.138Z,3.50
2019-02-23T22:11:10.568Z,3.40
2019-02-23T22:13:40.235Z,3.50
2019-02-23T22:16:09.675Z,3.50
2019-02-23T22:18:39.342Z,3.50
2019-02-23T22:21:08.793Z,3.50
2019-02-23T22:23:38.266Z,3.70
2019-02-23T22:26:07.849Z,3.60
2019-02-23T22:28:37.312Z,3.70
2019-02-23T22:31:06.892Z,3.80
2019-02-23T22:33:36.363Z,3.80
2019-02-23T22:36:05.778Z,3.90
2019-02-23T22:38:35.213Z,3.70
2019-02-23T22:41:04.796Z,3.70
2019-02-23T22:43:34.311Z,3.70
2019-02-23T22:46:03.784Z,3.60
2019-02-23T22:48:33.207Z,3.50
2019-02-23T22:51:02.673Z,3.50
2019-02-23T22:53:32.066Z,3.50
2019-02-23T22:56:01.719Z,3.50
2019-02-23T22:58:31.307Z,3.50
2019-02-23T23:01:05.007Z,3.50
2019-02-23T23:03:34.395Z,3.50
2019-02-23T23:06:03.871Z,3.40
2019-02-23T23:08:33.482Z,3.30
2019-02-23T23:11:02.964Z,3.30
2019-02-23T23:13:33.999Z,3.40
2019-02-23T23:16:03.708Z,3.40
2019-02-23T23:18:34.596Z,3.40
2019-02-23T23:21:04.160Z,3.30
2019-02-23T23:23:34.007Z,3.50
2019-02-23T23:26:03.434Z,3.50
2019-02-23T23:28:32.836Z,3.50
2019-02-23T23:31:02.272Z,3.40
2019-02-23T23:33:31.695Z,3.30
2019-02-23T23:36:01.449Z,3.30
2019-02-23T23:38:43.599Z,3.20
2019-02-23T23:41:13.070Z,3.20
2019-02-23T23:43:43.339Z,3.20
2019-02-23T23:46:12.727Z,3.20
2019-02-23T23:48:42.191Z,3.20
2019-02-23T23:51:11.739Z,3.30
2019-02-23T23:53:41.472Z,3.50
2019-02-23T23:56:11.346Z,3.50
2019-02-23T23:58:40.831Z,3.50
